AFR1383 LIRF-LIMC
Flight info
| Callsign | AFR1383 |
|---|---|
| Flight time | N/A |
| Altitude | 38000 |
| Route | NEMBO DCT ELB DCT NORNI DCT UPDIN DCT SPEZI DCT IDONA DCT MEBUR |
| Aircraft | A21N/M-SDE2E3FGHIRWXY/LB1 |
Departure
| Time | 2026-05-05 07:36 |
|---|---|
| Airport | Rome–Fiumicino Leonardo da Vinci International Airport (LIRF) |
Arrival
| Time | N/A |
|---|---|
| Airport | Milan Malpensa International Airport (LIMC) |
| Time | Latitude | Longitude | Altitude | Speed | Heading |
|---|---|---|---|---|---|
| 2026-05-05 07:31 | 41.80098 | 12.26215 | 17 ft | 0 kts | 78° |
| 2026-05-05 07:33 | 41.80154 | 12.26351 | 17 ft | 33 kts | 35° |
| 2026-05-05 07:33 | 41.80369 | 12.26377 | 17 ft | 30 kts | 7° |
| 2026-05-05 07:33 | 41.80465 | 12.26560 | 18 ft | 25 kts | 69° |
| 2026-05-05 07:34 | 41.80527 | 12.26777 | 18 ft | 24 kts | 61° |
| 2026-05-05 07:34 | 41.80590 | 12.26986 | 17 ft | 25 kts | 71° |
| 2026-05-05 07:34 | 41.80656 | 12.27208 | 16 ft | 26 kts | 57° |
| 2026-05-05 07:34 | 41.80793 | 12.27276 | 15 ft | 18 kts | 350° |
| 2026-05-05 07:35 | 41.80910 | 12.27235 | 15 ft | 16 kts | 343° |
| 2026-05-05 07:35 | 41.81003 | 12.27170 | 15 ft | 11 kts | 289° |
| 2026-05-05 07:35 | 41.80984 | 12.27021 | 16 ft | 46 kts | 253° |
| 2026-05-05 07:35 | 41.80757 | 12.26179 | 24 ft | 147 kts | 249° |
| 2026-05-05 07:36 | 41.80358 | 12.24623 | 569 ft | 168 kts | 252° |
| 2026-05-05 07:36 | 41.80118 | 12.23241 | 2132 ft | 157 kts | 248° |
| 2026-05-05 07:36 | 41.79821 | 12.21692 | 2808 ft | 188 kts | 245° |
| 2026-05-05 07:36 | 41.79450 | 12.19750 | 3207 ft | 243 kts | 256° |
| 2026-05-05 07:37 | 41.79250 | 12.17244 | 3553 ft | 295 kts | 262° |
| 2026-05-05 07:37 | 41.79138 | 12.14314 | 4011 ft | 337 kts | 264° |
| 2026-05-05 07:37 | 41.79059 | 12.11126 | 5471 ft | 342 kts | 266° |
| 2026-05-05 07:37 | 41.79029 | 12.07899 | 6982 ft | 350 kts | 268° |
| 2026-05-05 07:38 | 41.79027 | 12.04593 | 8337 ft | 358 kts | 269° |
| 2026-05-05 07:38 | 41.79026 | 12.01279 | 9583 ft | 363 kts | 269° |
| 2026-05-05 07:38 | 41.79023 | 11.97860 | 10685 ft | 369 kts | 269° |
| 2026-05-05 07:38 | 41.79017 | 11.94388 | 11767 ft | 375 kts | 268° |
| 2026-05-05 07:39 | 41.79008 | 11.90849 | 12837 ft | 381 kts | 268° |
| 2026-05-05 07:39 | 41.78998 | 11.87315 | 13899 ft | 387 kts | 268° |
| 2026-05-05 07:39 | 41.78986 | 11.83689 | 14877 ft | 392 kts | 268° |
| 2026-05-05 07:39 | 41.78972 | 11.80008 | 15776 ft | 399 kts | 268° |
| 2026-05-05 07:40 | 41.78956 | 11.76255 | 16668 ft | 405 kts | 268° |
| 2026-05-05 07:40 | 41.78939 | 11.72443 | 17548 ft | 411 kts | 268° |
| 2026-05-05 07:40 | 41.78920 | 11.68585 | 18372 ft | 417 kts | 268° |
| 2026-05-05 07:40 | 41.78900 | 11.64672 | 19148 ft | 420 kts | 268° |
| 2026-05-05 07:41 | 41.78880 | 11.60789 | 19966 ft | 422 kts | 268° |
| 2026-05-05 07:41 | 41.78837 | 11.56838 | 20738 ft | 425 kts | 266° |
| 2026-05-05 07:41 | 41.78701 | 11.52860 | 21420 ft | 432 kts | 271° |
| 2026-05-05 07:41 | 41.79325 | 11.48851 | 21778 ft | 449 kts | 287° |
| 2026-05-05 07:42 | 41.80794 | 11.45115 | 22663 ft | 445 kts | 300° |
| 2026-05-05 07:42 | 41.82535 | 11.41864 | 24331 ft | 405 kts | 303° |
| 2026-05-05 07:42 | 41.84296 | 11.39181 | 25276 ft | 365 kts | 309° |
| 2026-05-05 07:42 | 41.86072 | 11.36942 | 25772 ft | 335 kts | 311° |
| 2026-05-05 07:43 | 41.87718 | 11.34942 | 26111 ft | 310 kts | 311° |
| 2026-05-05 07:43 | 41.89275 | 11.33084 | 26322 ft | 293 kts | 311° |
| 2026-05-05 07:43 | 41.90837 | 11.31219 | 26580 ft | 308 kts | 311° |
| 2026-05-05 07:43 | 41.92463 | 11.29255 | 26905 ft | 319 kts | 311° |
| 2026-05-05 07:44 | 41.94137 | 11.27219 | 27296 ft | 324 kts | 311° |
| 2026-05-05 07:44 | 41.95738 | 11.25287 | 27573 ft | 302 kts | 311° |
| 2026-05-05 07:44 | 41.97272 | 11.23469 | 27722 ft | 286 kts | 311° |
| 2026-05-05 07:44 | 41.98750 | 11.21736 | 27813 ft | 280 kts | 310° |
| 2026-05-05 07:45 | 42.00223 | 11.20013 | 27896 ft | 280 kts | 311° |
| 2026-05-05 07:45 | 42.01698 | 11.18287 | 27698 ft | 282 kts | 311° |
| 2026-05-05 07:45 | 42.03201 | 11.16523 | 27112 ft | 289 kts | 311° |
| 2026-05-05 07:45 | 42.04711 | 11.14739 | 26597 ft | 294 kts | 311° |
| 2026-05-05 07:46 | 42.06257 | 11.12904 | 26103 ft | 298 kts | 311° |
| 2026-05-05 07:46 | 42.07820 | 11.11045 | 25661 ft | 300 kts | 312° |
| 2026-05-05 07:46 | 42.09389 | 11.09174 | 25216 ft | 302 kts | 312° |
| 2026-05-05 07:46 | 42.10970 | 11.07289 | 24799 ft | 304 kts | 313° |
| 2026-05-05 07:47 | 42.12537 | 11.05417 | 24403 ft | 304 kts | 313° |
| 2026-05-05 07:47 | 42.14124 | 11.03520 | 24015 ft | 304 kts | 313° |
| 2026-05-05 07:47 | 42.15710 | 11.01624 | 23638 ft | 304 kts | 313° |
| 2026-05-05 07:47 | 42.17294 | 10.99731 | 23198 ft | 304 kts | 313° |
| 2026-05-05 07:48 | 42.18877 | 10.97841 | 22775 ft | 303 kts | 313° |
| 2026-05-05 07:48 | 42.20434 | 10.95983 | 22362 ft | 302 kts | 313° |
| 2026-05-05 07:48 | 42.22006 | 10.94107 | 21958 ft | 301 kts | 313° |
| 2026-05-05 07:48 | 42.23570 | 10.92244 | 21569 ft | 299 kts | 313° |
| 2026-05-05 07:49 | 42.25130 | 10.90388 | 21180 ft | 298 kts | 313° |
| 2026-05-05 07:49 | 42.26683 | 10.88541 | 20797 ft | 296 kts | 313° |
| 2026-05-05 07:49 | 42.28225 | 10.86710 | 20411 ft | 294 kts | 313° |
| 2026-05-05 07:49 | 42.29762 | 10.84887 | 20038 ft | 293 kts | 313° |
| 2026-05-05 07:50 | 42.31293 | 10.83074 | 19675 ft | 291 kts | 313° |
| 2026-05-05 07:50 | 42.32811 | 10.81278 | 19315 ft | 290 kts | 313° |